Wetterdaten: Woche 05.08.19 - 11.08.19 (KW32)
Datum Zeit Temp. Aussen Temp. o. S. +5cm Feuchte Auss Luftdruck Regen Sonnenschein Regendauer Solar Windben Empfang
05.08.2019 00:00 21,2 C 19,5 C 18,9 C 73 % 1011,9 hPa 0,0 l/m 0,00 h 0,00 h 0 W/m 0,2 km/h (0 Bft) 97,74 %
05.08.2019 01:00 20,7 C 19,3 C 18,5 C 75 % 1011,5 hPa 0,0 l/m 0,00 h 0,00 h 0 W/m 0,0 km/h (0 Bft) 98,15 %
05.08.2019 02:00 20,3 C 18,9 C 18,4 C 78 % 1010,9 hPa 0,0 l/m 0,00 h 0,00 h 0 W/m 0,6 km/h (0 Bft) 97,42 %
05.08.2019 03:00 19,8 C 17,7 C 17,3 C 80 % 1010,7 hPa 0,0 l/m 0,00 h 0,00 h 0 W/m 0,0 km/h (0 Bft) 96,73 %
05.08.2019 04:00 19,1 C 18,7 C 17,4 C 81 % 1010,5 hPa 0,0 l/m 0,00 h 0,00 h 0 W/m 0,0 km/h (0 Bft) 98,19 %
05.08.2019 05:00 19,5 C 18,9 C 18,2 C 80 % 1010,5 hPa 0,0 l/m 0,00 h 0,00 h 0 W/m 0,5 km/h (0 Bft) 97,58 %
05.08.2019 06:00 19,8 C 18,0 C 17,6 C 82 % 1010,7 hPa 0,0 l/m 0,00 h 0,40 h 7 W/m 6,2 km/h (2 Bft) 96,24 %
05.08.2019 07:00 19,9 C 19,1 C 18,1 C 83 % 1010,6 hPa 0,0 l/m 0,00 h 0,23 h 29 W/m 3,0 km/h (1 Bft) 98,51 %
05.08.2019 08:00 20,0 C 19,5 C 18,6 C 85 % 1010,5 hPa 0,0 l/m 0,00 h 0,07 h 77 W/m 4,3 km/h (1 Bft) 97,87 %
05.08.2019 09:00 20,9 C 22,4 C 21,5 C 83 % 1010,6 hPa 0,0 l/m 0,13 h 0,00 h 193 W/m 8,8 km/h (2 Bft) 97,08 %
05.08.2019 10:00 23,0 C 24,5 C 23,6 C 74 % 1010,8 hPa 0,0 l/m 0,37 h 0,00 h 285 W/m 16,0 km/h (3 Bft) 96,72 %
05.08.2019 11:00 24,4 C 27,7 C 26,2 C 69 % 1011,0 hPa 0,0 l/m 0,83 h 0,00 h 591 W/m 16,8 km/h (3 Bft) 99,36 %
05.08.2019 12:00 26,5 C 30,9 C 27,2 C 61 % 1010,7 hPa 0,0 l/m 1,00 h 0,00 h 784 W/m 14,9 km/h (3 Bft) 98,23 %
05.08.2019 13:00 27,8 C 32,1 C 31,4 C 51 % 1010,6 hPa 0,0 l/m 1,00 h 0,00 h 875 W/m 17,3 km/h (3 Bft) 94,73 %
05.08.2019 14:00 28,4 C 32,3 C 31,7 C 49 % 1010,5 hPa 0,0 l/m 1,00 h 0,00 h 898 W/m 16,2 km/h (3 Bft) 99,64 %
05.08.2019 15:00 28,6 C 32,3 C 28,0 C 51 % 1010,7 hPa 0,0 l/m 1,00 h 0,00 h 734 W/m 12,9 km/h (3 Bft) 98,01 %
05.08.2019 16:00 28,3 C 30,8 C 27,7 C 52 % 1010,8 hPa 0,0 l/m 1,00 h 0,00 h 573 W/m 12,2 km/h (2 Bft) 95,23 %
05.08.2019 17:00 28,1 C 30,3 C 27,5 C 52 % 1010,8 hPa 0,0 l/m 1,00 h 0,00 h 475 W/m 10,2 km/h (2 Bft) 98,44 %
05.08.2019 18:00 27,7 C 28,5 C 26,2 C 51 % 1010,6 hPa 0,0 l/m 0,80 h 0,00 h 297 W/m 12,9 km/h (3 Bft) 96,87 %
05.08.2019 19:00 26,5 C 26,2 C 25,1 C 52 % 1010,6 hPa 0,0 l/m 0,28 h 0,00 h 180 W/m 13,6 km/h (3 Bft) 97,06 %
05.08.2019 20:00 25,5 C 24,3 C 24,0 C 56 % 1010,7 hPa 0,0 l/m 0,30 h 0,00 h 45 W/m 8,3 km/h (2 Bft) 98,15 %
05.08.2019 21:00 24,7 C 23,1 C 23,1 C 58 % 1010,8 hPa 0,0 l/m 0,00 h 0,00 h 6 W/m 5,9 km/h (2 Bft) 96,96 %
05.08.2019 22:00 24,0 C 22,7 C 22,0 C 60 % 1010,9 hPa 0,0 l/m 0,00 h 0,00 h 0 W/m 4,4 km/h (1 Bft) 98,25 %
05.08.2019 23:00 23,4 C 22,0 C 21,6 C 64 % 1010,8 hPa 0,0 l/m 0,00 h 0,00 h 0 W/m 4,4 km/h (1 Bft) 96,63 %
06.08.2019 00:00 22,7 C 21,1 C 20,9 C 66 % 1010,7 hPa 0,0 l/m 0,00 h 0,00 h 0 W/m 4,6 km/h (1 Bft) 97,61 %
06.08.2019 01:00 22,0 C 20,6 C 20,6 C 69 % 1010,6 hPa 0,0 l/m 0,00 h 0,00 h 0 W/m 6,1 km/h (2 Bft) 98,22 %
06.08.2019 02:00 21,6 C 20,3 C 20,1 C 71 % 1010,5 hPa 0,0 l/m 0,00 h 0,00 h 0 W/m 4,5 km/h (1 Bft) 97,08 %
06.08.2019 03:00 20,8 C 18,2 C 17,7 C 75 % 1010,5 hPa 0,0 l/m 0,00 h 0,00 h 0 W/m 0,0 km/h (0 Bft) 97,15 %
06.08.2019 04:00 19,7 C 18,7 C 18,1 C 79 % 1010,5 hPa 0,0 l/m 0,00 h 0,00 h 0 W/m 2,6 km/h (1 Bft) 98,48 %
06.08.2019 05:00 19,7 C 18,1 C 18,1 C 81 % 1011,0 hPa 0,0 l/m 0,00 h 0,47 h 0 W/m 10,3 km/h (2 Bft) 98,01 %
06.08.2019 06:00 17,6 C 14,5 C 14,6 C 85 % 1011,3 hPa 0,6 l/m 0,00 h 0,30 h 18 W/m 6,9 km/h (2 Bft) 96,15 %
06.08.2019 07:00 16,3 C 14,9 C 14,5 C 89 % 1011,2 hPa 0,0 l/m 0,00 h 0,00 h 68 W/m 4,5 km/h (1 Bft) 97,95 %
06.08.2019 08:00 16,8 C 16,3 C 15,5 C 90 % 1011,6 hPa 0,0 l/m 0,07 h 0,00 h 113 W/m 12,1 km/h (2 Bft) 97,52 %
06.08.2019 09:00 18,5 C 20,4 C 19,7 C 81 % 1011,9 hPa 0,0 l/m 0,43 h 0,00 h 287 W/m 13,0 km/h (3 Bft) 96,82 %
06.08.2019 10:00 20,9 C 24,8 C 25,2 C 68 % 1011,8 hPa 0,0 l/m 1,00 h 0,00 h 630 W/m 15,5 km/h (3 Bft) 96,70 %
06.08.2019 11:00 22,8 C 27,0 C 25,4 C 61 % 1011,6 hPa 0,0 l/m 1,00 h 0,00 h 726 W/m 15,5 km/h (3 Bft) 98,64 %
06.08.2019 12:00 24,1 C 27,2 C 24,8 C 58 % 1011,4 hPa 0,0 l/m 0,83 h 0,00 h 702 W/m 18,2 km/h (3 Bft) 99,12 %
06.08.2019 13:00 24,4 C 26,9 C 26,2 C 59 % 1011,1 hPa 0,0 l/m 0,83 h 0,00 h 564 W/m 13,3 km/h (3 Bft) 94,54 %
06.08.2019 14:00 24,9 C 27,0 C 25,9 C 58 % 1011,0 hPa 0,0 l/m 0,80 h 0,00 h 514 W/m 14,8 km/h (3 Bft) 99,43 %
06.08.2019 15:00 25,4 C 27,3 C 25,6 C 57 % 1010,4 hPa 0,0 l/m 0,80 h 0,00 h 443 W/m 13,0 km/h (3 Bft) 98,86 %
06.08.2019 16:00 25,4 C 27,2 C 25,5 C 57 % 1009,8 hPa 0,0 l/m 0,80 h 0,00 h 464 W/m 14,9 km/h (3 Bft) 95,29 %
06.08.2019 17:00 25,0 C 24,6 C 24,2 C 58 % 1009,2 hPa 0,0 l/m 0,00 h 0,00 h 168 W/m 10,0 km/h (2 Bft) 98,43 %
06.08.2019 18:00 24,4 C 23,8 C 23,6 C 60 % 1008,7 hPa 0,0 l/m 0,00 h 0,00 h 108 W/m 8,1 km/h (2 Bft) 98,05 %
06.08.2019 19:00 23,9 C 22,9 C 22,7 C 63 % 1008,4 hPa 0,0 l/m 0,00 h 0,00 h 52 W/m 5,7 km/h (1 Bft) 97,56 %
06.08.2019 20:00 23,4 C 22,2 C 21,9 C 66 % 1008,0 hPa 0,0 l/m 0,00 h 0,03 h 25 W/m 7,5 km/h (2 Bft) 97,22 %
06.08.2019 21:00 22,3 C 20,5 C 20,4 C 73 % 1008,1 hPa 0,0 l/m 0,00 h 0,10 h 4 W/m 9,9 km/h (2 Bft) 97,96 %
06.08.2019 22:00 21,3 C 19,8 C 19,7 C 78 % 1008,3 hPa 0,0 l/m 0,00 h 0,00 h 0 W/m 8,0 km/h (2 Bft) 97,94 %
06.08.2019 23:00 20,6 C 19,1 C 19,1 C 82 % 1008,1 hPa 0,0 l/m 0,00 h 0,00 h 0 W/m 8,3 km/h (2 Bft) 95,09 %
07.08.2019 00:00 19,9 C 18,9 C 18,4 C 85 % 1008,1 hPa 0,0 l/m 0,00 h 0,00 h 0 W/m 10,7 km/h (2 Bft) 98,64 %
07.08.2019 01:00 19,5 C 18,4 C 18,1 C 86 % 1008,0 hPa 0,0 l/m 0,00 h 0,00 h 0 W/m 11,7 km/h (2 Bft) 98,51 %
07.08.2019 02:00 19,1 C 17,9 C 17,8 C 88 % 1007,9 hPa 0,0 l/m 0,00 h 0,00 h 0 W/m 11,0 km/h (2 Bft) 93,52 %
07.08.2019 03:00 18,7 C 17,5 C 17,5 C 89 % 1007,6 hPa 0,0 l/m 0,00 h 0,00 h 0 W/m 8,6 km/h (2 Bft) 98,65 %
07.08.2019 04:00 18,3 C 17,2 C 17,2 C 91 % 1007,5 hPa 0,0 l/m 0,00 h 0,00 h 0 W/m 8,5 km/h (2 Bft) 98,08 %
07.08.2019 05:00 18,0 C 16,8 C 16,9 C 91 % 1007,5 hPa 0,0 l/m 0,00 h 0,00 h 0 W/m 7,5 km/h (2 Bft) 95,09 %
07.08.2019 06:00 17,4 C 16,5 C 16,5 C 91 % 1007,8 hPa 0,0 l/m 0,00 h 0,00 h 12 W/m 6,4 km/h (2 Bft) 97,61 %
07.08.2019 07:00 17,3 C 17,1 C 16,7 C 91 % 1007,8 hPa 0,0 l/m 0,00 h 0,00 h 46 W/m 7,7 km/h (2 Bft) 97,72 %
07.08.2019 08:00 18,1 C 19,6 C 18,3 C 86 % 1007,7 hPa 0,0 l/m 0,17 h 0,00 h 153 W/m 13,3 km/h (3 Bft) 97,15 %
07.08.2019 09:00 20,4 C 23,4 C 22,8 C 75 % 1007,6 hPa 0,0 l/m 0,93 h 0,00 h 424 W/m 15,0 km/h (3 Bft) 97,65 %
07.08.2019 10:00 21,3 C 23,4 C 23,1 C 70 % 1007,8 hPa 0,0 l/m 0,77 h 0,00 h 399 W/m 15,8 km/h (3 Bft) 98,03 %
07.08.2019 11:00 22,8 C 26,8 C 25,3 C 62 % 1008,1 hPa 0,0 l/m 0,90 h 0,00 h 702 W/m 17,6 km/h (3 Bft) 98,57 %
07.08.2019 12:00 24,7 C 27,9 C 25,5 C 55 % 1007,7 hPa 0,0 l/m 0,97 h 0,00 h 746 W/m 22,0 km/h (4 Bft) 94,76 %
07.08.2019 13:00 25,1 C 27,3 C 26,8 C 55 % 1007,5 hPa 0,0 l/m 0,90 h 0,00 h 604 W/m 17,1 km/h (3 Bft) 99,15 %
07.08.2019 14:00 25,2 C 27,3 C 26,6 C 55 % 1007,4 hPa 0,0 l/m 0,77 h 0,00 h 539 W/m 16,7 km/h (3 Bft) 99,22 %
07.08.2019 15:00 25,7 C 28,0 C 26,0 C 53 % 1007,4 hPa 0,0 l/m 0,83 h 0,00 h 593 W/m 17,0 km/h (3 Bft) 94,07 %
07.08.2019 16:00 25,9 C 27,9 C 25,9 C 53 % 1007,5 hPa 0,0 l/m 0,77 h 0,00 h 501 W/m 15,5 km/h (3 Bft) 99,07 %
07.08.2019 17:00 25,8 C 26,6 C 25,3 C 52 % 1007,4 hPa 0,0 l/m 0,57 h 0,00 h 332 W/m 13,4 km/h (3 Bft) 98,09 %
07.08.2019 18:00 25,1 C 26,7 C 24,4 C 54 % 1007,4 hPa 0,0 l/m 0,80 h 0,00 h 330 W/m 13,0 km/h (3 Bft) 95,94 %
07.08.2019 19:00 24,8 C 24,0 C 23,2 C 54 % 1007,5 hPa 0,0 l/m 0,23 h 0,00 h 115 W/m 10,3 km/h (2 Bft) 98,29 %
07.08.2019 20:00 23,4 C 21,9 C 21,8 C 58 % 1008,0 hPa 0,0 l/m 0,00 h 0,00 h 30 W/m 7,2 km/h (2 Bft) 97,79 %
07.08.2019 21:00 22,0 C 19,3 C 18,9 C 65 % 1008,5 hPa 0,0 l/m 0,00 h 0,00 h 6 W/m 2,1 km/h (1 Bft) 97,58 %
07.08.2019 22:00 20,5 C 18,7 C 18,4 C 72 % 1009,2 hPa 0,0 l/m 0,00 h 0,00 h 0 W/m 6,3 km/h (2 Bft) 96,65 %
07.08.2019 23:00 19,4 C 17,9 C 17,8 C 78 % 1009,6 hPa 0,0 l/m 0,00 h 0,00 h 0 W/m 6,2 km/h (2 Bft) 97,93 %
08.08.2019 00:00 18,5 C 17,1 C 17,0 C 81 % 1009,8 hPa 0,0 l/m 0,00 h 0,00 h 0 W/m 8,5 km/h (2 Bft) 97,53 %
08.08.2019 01:00 17,7 C 16,4 C 16,5 C 82 % 1010,1 hPa 0,0 l/m 0,00 h 0,00 h 0 W/m 8,6 km/h (2 Bft) 97,89 %
08.08.2019 02:00 17,1 C 16,0 C 16,0 C 82 % 1010,2 hPa 0,0 l/m 0,00 h 0,00 h 0 W/m 8,4 km/h (2 Bft) 96,75 %
08.08.2019 03:00 16,6 C 15,6 C 15,6 C 81 % 1010,3 hPa 0,0 l/m 0,00 h 0,00 h 0 W/m 7,2 km/h (2 Bft) 97,85 %
08.08.2019 04:00 16,2 C 15,2 C 15,1 C 80 % 1010,2 hPa 0,0 l/m 0,00 h 0,00 h 0 W/m 9,6 km/h (2 Bft) 98,11 %
08.08.2019 05:00 15,8 C 14,6 C 14,6 C 82 % 1010,3 hPa 0,0 l/m 0,00 h 0,00 h 0 W/m 7,2 km/h (2 Bft) 95,87 %
08.08.2019 06:00 15,4 C 14,5 C 14,5 C 84 % 1010,6 hPa 0,0 l/m 0,00 h 0,00 h 13 W/m 8,7 km/h (2 Bft) 97,86 %
08.08.2019 07:00 15,7 C 15,5 C 15,2 C 84 % 1010,9 hPa 0,0 l/m 0,00 h 0,00 h 35 W/m 12,7 km/h (3 Bft) 97,75 %
08.08.2019 08:00 16,9 C 18,3 C 16,4 C 83 % 1011,3 hPa 0,0 l/m 0,27 h 0,00 h 135 W/m 12,8 km/h (3 Bft) 97,31 %
08.08.2019 09:00 19,4 C 23,5 C 22,7 C 77 % 1011,6 hPa 0,0 l/m 1,00 h 0,00 h 468 W/m 13,4 km/h (3 Bft) 96,51 %
08.08.2019 10:00 21,3 C 25,3 C 26,2 C 71 % 1011,9 hPa 0,0 l/m 0,97 h 0,00 h 637 W/m 15,5 km/h (3 Bft) 98,01 %
08.08.2019 11:00 22,4 C 25,1 C 24,0 C 64 % 1012,1 hPa 0,0 l/m 0,37 h 0,00 h 405 W/m 13,5 km/h (3 Bft) 98,86 %
08.08.2019 12:00 23,8 C 26,7 C 24,5 C 59 % 1012,1 hPa 0,0 l/m 0,50 h 0,00 h 531 W/m 16,7 km/h (3 Bft) 95,58 %
08.08.2019 13:00 24,3 C 27,2 C 27,1 C 58 % 1012,3 hPa 0,0 l/m 0,87 h 0,00 h 832 W/m 25,2 km/h (4 Bft) 97,51 %
08.08.2019 14:00 23,6 C 24,7 C 24,8 C 62 % 1012,7 hPa 0,0 l/m 0,43 h 0,00 h 497 W/m 22,7 km/h (4 Bft) 98,72 %
08.08.2019 15:00 23,3 C 26,0 C 24,1 C 64 % 1012,6 hPa 0,0 l/m 0,87 h 0,00 h 574 W/m 20,9 km/h (4 Bft) 96,44 %
08.08.2019 16:00 24,7 C 26,7 C 24,8 C 60 % 1012,2 hPa 0,0 l/m 0,83 h 0,00 h 491 W/m 17,6 km/h (3 Bft) 97,58 %
08.08.2019 17:00 25,1 C 27,4 C 24,8 C 57 % 1012,0 hPa 0,0 l/m 0,93 h 0,00 h 455 W/m 12,1 km/h (2 Bft) 97,93 %
08.08.2019 18:00 25,1 C 25,6 C 23,8 C 55 % 1011,9 hPa 0,0 l/m 0,93 h 0,00 h 229 W/m 9,9 km/h (2 Bft) 97,46 %
08.08.2019 19:00 24,3 C 23,6 C 22,7 C 57 % 1011,9 hPa 0,0 l/m 0,10 h 0,00 h 108 W/m 7,3 km/h (2 Bft) 97,58 %
08.08.2019 20:00 23,4 C 21,9 C 21,3 C 59 % 1011,9 hPa 0,0 l/m 0,00 h 0,00 h 32 W/m 4,9 km/h (1 Bft) 97,25 %
08.08.2019 21:00 21,8 C 19,1 C 18,5 C 67 % 1012,1 hPa 0,0 l/m 0,00 h 0,00 h 6 W/m 0,1 km/h (0 Bft) 98,06 %
08.08.2019 22:00 20,5 C 18,6 C 18,3 C 71 % 1012,2 hPa 0,0 l/m 0,00 h 0,00 h 0 W/m 0,1 km/h (0 Bft) 95,87 %
08.08.2019 23:00 19,7 C 17,6 C 17,2 C 74 % 1012,1 hPa 0,0 l/m 0,00 h 0,00 h 0 W/m 0,0 km/h (0 Bft) 98,36 %
09.08.2019 00:00 18,7 C 16,5 C 16,0 C 77 % 1012,0 hPa 0,0 l/m 0,00 h 0,00 h 0 W/m 0,3 km/h (0 Bft) 98,59 %
09.08.2019 01:00 17,7 C 15,7 C 15,3 C 80 % 1011,9 hPa 0,0 l/m 0,00 h 0,00 h 0 W/m 0,0 km/h (0 Bft) 95,44 %
09.08.2019 02:00 17,3 C 16,4 C 16,1 C 85 % 1011,4 hPa 0,0 l/m 0,00 h 0,00 h 0 W/m 1,6 km/h (1 Bft) 97,93 %
09.08.2019 03:00 17,5 C 16,7 C 16,4 C 88 % 1011,1 hPa 0,0 l/m 0,00 h 0,00 h 0 W/m 3,8 km/h (1 Bft) 97,57 %
09.08.2019 04:00 17,5 C 15,9 C 15,7 C 88 % 1010,8 hPa 0,0 l/m 0,00 h 0,00 h 0 W/m 1,6 km/h (1 Bft) 97,22 %
09.08.2019 05:00 17,1 C 16,5 C 16,0 C 89 % 1010,2 hPa 0,0 l/m 0,00 h 0,00 h 0 W/m 4,0 km/h (1 Bft) 96,80 %
09.08.2019 06:00 17,4 C 17,2 C 16,7 C 89 % 1009,5 hPa 0,0 l/m 0,00 h 0,00 h 12 W/m 5,0 km/h (1 Bft) 98,08 %
09.08.2019 07:00 18,4 C 18,6 C 18,1 C 86 % 1008,9 hPa 0,0 l/m 0,00 h 0,00 h 39 W/m 10,5 km/h (2 Bft) 97,72 %
09.08.2019 08:00 19,6 C 19,5 C 19,0 C 80 % 1008,5 hPa 0,0 l/m 0,00 h 0,00 h 64 W/m 15,0 km/h (3 Bft) 97,65 %
09.08.2019 09:00 20,7 C 20,5 C 19,8 C 78 % 1008,2 hPa 0,0 l/m 0,00 h 0,20 h 97 W/m 16,4 km/h (3 Bft) 96,08 %
09.08.2019 10:00 21,2 C 18,9 C 18,0 C 82 % 1007,8 hPa 0,2 l/m 0,00 h 0,40 h 74 W/m 4,3 km/h (1 Bft) 99,07 %
09.08.2019 11:00 20,9 C 19,1 C 18,3 C 85 % 1007,5 hPa 0,2 l/m 0,00 h 0,20 h 112 W/m 5,7 km/h (1 Bft) 97,79 %
09.08.2019 12:00 22,2 C 22,7 C 20,6 C 81 % 1007,1 hPa 0,0 l/m 0,00 h 0,13 h 170 W/m 14,7 km/h (3 Bft) 94,90 %
09.08.2019 13:00 23,6 C 24,2 C 22,6 C 77 % 1007,4 hPa 0,0 l/m 0,00 h 0,27 h 191 W/m 8,0 km/h (2 Bft) 99,36 %
09.08.2019 14:00 25,4 C 27,3 C 26,0 C 72 % 1007,2 hPa 0,0 l/m 0,17 h 0,00 h 329 W/m 12,0 km/h (2 Bft) 98,01 %
09.08.2019 15:00 25,8 C 26,4 C 24,9 C 70 % 1007,2 hPa 0,0 l/m 0,33 h 0,00 h 375 W/m 22,3 km/h (4 Bft) 95,94 %
09.08.2019 16:00 26,1 C 27,2 C 25,3 C 72 % 1006,8 hPa 0,0 l/m 0,67 h 0,00 h 464 W/m 20,6 km/h (4 Bft) 99,07 %
09.08.2019 17:00 25,0 C 24,1 C 23,7 C 76 % 1007,2 hPa 0,0 l/m 0,00 h 0,00 h 101 W/m 14,1 km/h (3 Bft) 97,08 %
09.08.2019 18:00 24,0 C 21,4 C 21,1 C 82 % 1008,3 hPa 0,2 l/m 0,00 h 0,73 h 32 W/m 14,5 km/h (3 Bft) 96,57 %
09.08.2019 19:00 22,3 C 20,0 C 19,4 C 91 % 1009,0 hPa 0,2 l/m 0,00 h 0,37 h 29 W/m 14,4 km/h (3 Bft) 97,80 %
09.08.2019 20:00 21,5 C 20,0 C 19,4 C 94 % 1009,8 hPa 0,0 l/m 0,00 h 0,07 h 12 W/m 17,9 km/h (3 Bft) 97,72 %
09.08.2019 21:00 21,2 C 19,4 C 19,3 C 96 % 1011,2 hPa 0,2 l/m 0,00 h 0,30 h 5 W/m 18,6 km/h (3 Bft) 96,14 %
09.08.2019 22:00 20,9 C 19,4 C 19,1 C 97 % 1011,9 hPa 0,0 l/m 0,00 h 0,00 h 0 W/m 14,2 km/h (3 Bft) 96,65 %
09.08.2019 23:00 20,5 C 19,0 C 18,7 C 97 % 1013,0 hPa 0,0 l/m 0,00 h 0,00 h 0 W/m 7,2 km/h (2 Bft) 98,86 %
10.08.2019 00:00 19,6 C 18,4 C 17,7 C 95 % 1013,4 hPa 0,0 l/m 0,00 h 0,00 h 0 W/m 14,0 km/h (3 Bft) 93,85 %
10.08.2019 01:00 19,7 C 18,6 C 18,0 C 86 % 1013,4 hPa 0,0 l/m 0,00 h 0,00 h 0 W/m 19,5 km/h (3 Bft) 95,37 %
10.08.2019 02:00 19,5 C 18,5 C 18,2 C 85 % 1013,3 hPa 0,0 l/m 0,00 h 0,00 h 0 W/m 17,6 km/h (3 Bft) 99,71 %
10.08.2019 03:00 19,3 C 18,3 C 17,8 C 86 % 1013,1 hPa 0,0 l/m 0,00 h 0,00 h 0 W/m 15,4 km/h (3 Bft) 98,08 %
10.08.2019 04:00 19,1 C 18,5 C 18,0 C 87 % 1012,4 hPa 0,0 l/m 0,00 h 0,00 h 0 W/m 17,4 km/h (3 Bft) 94,80 %
10.08.2019 05:00 19,4 C 18,8 C 18,3 C 84 % 1011,7 hPa 0,0 l/m 0,00 h 0,00 h 0 W/m 23,8 km/h (4 Bft) 99,15 %
10.08.2019 06:00 19,4 C 18,4 C 18,2 C 81 % 1011,2 hPa 0,0 l/m 0,00 h 0,00 h 11 W/m 21,6 km/h (4 Bft) 97,42 %
10.08.2019 07:00 19,4 C 19,0 C 18,4 C 81 % 1011,0 hPa 0,2 l/m 0,00 h 0,00 h 27 W/m 24,8 km/h (4 Bft) 96,01 %
10.08.2019 08:00 20,2 C 20,6 C 19,2 C 77 % 1010,9 hPa 0,0 l/m 0,23 h 0,00 h 116 W/m 31,7 km/h (5 Bft) 98,72 %
10.08.2019 09:00 21,4 C 22,7 C 22,2 C 72 % 1010,7 hPa 0,0 l/m 0,50 h 0,00 h 302 W/m 32,2 km/h (5 Bft) 97,65 %
10.08.2019 10:00 22,3 C 23,5 C 23,1 C 70 % 1010,5 hPa 0,0 l/m 0,33 h 0,00 h 326 W/m 29,6 km/h (5 Bft) 96,09 %
10.08.2019 11:00 22,5 C 22,9 C 22,3 C 67 % 1010,5 hPa 0,0 l/m 0,07 h 0,00 h 252 W/m 29,8 km/h (5 Bft) 97,22 %
10.08.2019 12:00 22,9 C 23,5 C 22,7 C 64 % 1010,4 hPa 0,0 l/m 0,03 h 0,00 h 264 W/m 29,2 km/h (5 Bft) 98,71 %
10.08.2019 13:00 23,7 C 24,8 C 24,0 C 62 % 1010,3 hPa 0,0 l/m 0,20 h 0,00 h 332 W/m 33,6 km/h (5 Bft) 97,43 %
10.08.2019 14:00 24,5 C 26,2 C 25,2 C 58 % 1010,2 hPa 0,0 l/m 0,43 h 0,00 h 430 W/m 33,5 km/h (5 Bft) 95,66 %
10.08.2019 15:00 24,9 C 26,0 C 24,6 C 55 % 1010,5 hPa 0,0 l/m 0,50 h 0,00 h 453 W/m 33,8 km/h (5 Bft) 99,29 %
10.08.2019 16:00 25,5 C 26,5 C 25,2 C 51 % 1010,7 hPa 0,0 l/m 0,27 h 0,00 h 315 W/m 31,6 km/h (5 Bft) 97,58 %
10.08.2019 17:00 25,3 C 25,8 C 24,5 C 51 % 1010,9 hPa 0,0 l/m 0,37 h 0,00 h 278 W/m 25,6 km/h (4 Bft) 94,88 %
10.08.2019 18:00 25,3 C 25,6 C 24,1 C 50 % 1011,2 hPa 0,0 l/m 0,47 h 0,00 h 239 W/m 27,5 km/h (4 Bft) 99,78 %
10.08.2019 19:00 24,7 C 23,9 C 23,5 C 51 % 1011,5 hPa 0,0 l/m 0,17 h 0,00 h 95 W/m 27,6 km/h (4 Bft) 97,65 %
10.08.2019 20:00 24,0 C 22,9 C 22,6 C 54 % 1012,1 hPa 0,0 l/m 0,00 h 0,00 h 26 W/m 18,8 km/h (3 Bft) 95,81 %
10.08.2019 21:00 23,0 C 21,4 C 21,2 C 57 % 1012,8 hPa 0,0 l/m 0,00 h 0,00 h 5 W/m 15,0 km/h (3 Bft) 98,72 %
10.08.2019 22:00 21,8 C 20,4 C 20,1 C 61 % 1013,1 hPa 0,0 l/m 0,00 h 0,00 h 0 W/m 11,1 km/h (2 Bft) 98,22 %
10.08.2019 23:00 21,1 C 19,8 C 19,6 C 63 % 1013,7 hPa 0,0 l/m 0,00 h 0,00 h 0 W/m 11,7 km/h (2 Bft) 96,28 %
11.08.2019 00:00 20,3 C 18,9 C 18,9 C 65 % 1014,4 hPa 0,0 l/m 0,00 h 0,00 h 0 W/m 7,1 km/h (2 Bft) 97,36 %
11.08.2019 01:00 19,5 C 17,7 C 17,7 C 68 % 1014,7 hPa 0,0 l/m 0,00 h 0,00 h 0 W/m 5,7 km/h (1 Bft) 98,36 %
11.08.2019 02:00 18,4 C 16,8 C 16,8 C 70 % 1014,8 hPa 0,0 l/m 0,00 h 0,00 h 0 W/m 6,1 km/h (2 Bft) 97,65 %
11.08.2019 03:00 17,6 C 16,3 C 16,3 C 72 % 1014,8 hPa 0,0 l/m 0,00 h 0,00 h 0 W/m 5,3 km/h (1 Bft) 96,08 %
11.08.2019 04:00 17,0 C 15,8 C 15,7 C 75 % 1015,0 hPa 0,0 l/m 0,00 h 0,00 h 0 W/m 7,9 km/h (2 Bft) 97,72 %
11.08.2019 05:00 16,6 C 15,9 C 15,6 C 78 % 1015,1 hPa 0,0 l/m 0,00 h 0,00 h 0 W/m 8,5 km/h (2 Bft) 98,44 %
11.08.2019 06:00 16,7 C 16,1 C 15,6 C 79 % 1015,2 hPa 0,0 l/m 0,00 h 0,00 h 16 W/m 10,1 km/h (2 Bft) 97,31 %
11.08.2019 07:00 16,9 C 16,9 C 16,3 C 79 % 1015,4 hPa 0,0 l/m 0,07 h 0,00 h 58 W/m 9,8 km/h (2 Bft) 96,87 %
11.08.2019 08:00 18,0 C 19,2 C 17,7 C 76 % 1015,5 hPa 0,0 l/m 0,33 h 0,00 h 161 W/m 12,3 km/h (3 Bft) 98,15 %
11.08.2019 09:00 20,5 C 23,8 C 23,4 C 70 % 1015,4 hPa 0,0 l/m 1,00 h 0,00 h 418 W/m 14,8 km/h (3 Bft) 97,66 %
11.08.2019 10:00 22,0 C 23,6 C 24,0 C 65 % 1015,2 hPa 0,0 l/m 0,50 h 0,00 h 379 W/m 17,7 km/h (3 Bft) 97,57 %
11.08.2019 11:00 22,5 C 25,0 C 24,6 C 61 % 1015,0 hPa 0,0 l/m 0,67 h 0,00 h 564 W/m 18,0 km/h (3 Bft) 95,94 %
11.08.2019 12:00 22,9 C 24,7 C 23,4 C 59 % 1014,8 hPa 0,0 l/m 0,77 h 0,00 h 481 W/m 20,5 km/h (4 Bft) 98,89 %
11.08.2019 13:00 23,3 C 24,4 C 23,5 C 55 % 1014,4 hPa 0,0 l/m 0,57 h 0,00 h 400 W/m 21,0 km/h (4 Bft) 97,15 %
11.08.2019 14:00 23,3 C 24,2 C 23,5 C 55 % 1013,9 hPa 0,0 l/m 0,33 h 0,00 h 359 W/m 18,0 km/h (3 Bft) 97,79 %
11.08.2019 15:00 22,4 C 22,0 C 21,7 C 58 % 1013,9 hPa 0,0 l/m 0,00 h 0,00 h 166 W/m 15,7 km/h (3 Bft) 97,93 %
11.08.2019 16:00 21,9 C 21,8 C 21,5 C 58 % 1013,9 hPa 0,0 l/m 0,00 h 0,00 h 155 W/m 13,1 km/h (3 Bft) 96,30 %
11.08.2019 17:00 21,7 C 21,9 C 21,2 C 59 % 1013,6 hPa 0,0 l/m 0,10 h 0,00 h 175 W/m 12,1 km/h (2 Bft) 98,51 %
11.08.2019 18:00 22,5 C 24,8 C 21,5 C 57 % 1013,3 hPa 0,0 l/m 0,92 h 0,00 h 368 W/m 13,9 km/h (3 Bft) 97,35 %
11.08.2019 19:00 22,0 C 20,8 C 20,4 C 55 % 1013,4 hPa 0,0 l/m 0,08 h 0,00 h 49 W/m 12,3 km/h (3 Bft) 96,75 %
11.08.2019 20:00 20,5 C 18,9 C 18,9 C 60 % 1014,0 hPa 0,0 l/m 0,00 h 0,00 h 18 W/m 8,2 km/h (2 Bft) 98,73 %
11.08.2019 21:00 19,5 C 18,3 C 18,3 C 63 % 1014,5 hPa 0,0 l/m 0,00 h 0,00 h 0 W/m 6,7 km/h (2 Bft) 96,52 %
11.08.2019 22:00 19,1 C 18,0 C 17,9 C 64 % 1014,7 hPa 0,0 l/m 0,00 h 0,00 h 0 W/m 6,7 km/h (2 Bft) 98,38 %
11.08.2019 23:00 18,7 C 17,4 C 17,4 C 66 % 1014,8 hPa 0,0 l/m 0,00 h 0,00 h 0 W/m 6,3 km/h (2 Bft) 97,43 %
Min-Datum _ 08.08.19 06.08.19 06.08.19 05.08.19 09.08.19 - - - - 05.08.19 10.08.19
_ Min-Zeit 06:32 06:08 07:24 14:16 16:30 - - - - 00:00 00:02
Minimum _ 15,3 C 14,4 C 13,9 C 47 % 1006,6 hPa - - - - 0,0 km/h (0 Bft) 12,50 %
Max-Datum _ 05.08.19 05.08.19 05.08.19 09.08.19 11.08.19 06.08.19 11.08.19 05.08.19 10.08.19 10.08.19 05.08.19
_ Max-Zeit 15:38 14:14 14:14 22:24 07:52 06:08 18:28 06:08 14:30 10:30 00:24
Maximum _ 28,8 C 33,9 C 35,0 C 97 % 1015,7 hPa 0,6 l/m 0,08 h 0,07 h 1064 W/m 61,2 km/h
S-SO (7 Bft)
100,00 %
Durchschnitt _ 21,5 C 21,6 C 20,8 C 71 % 1010,8 hPa #1,8 l/m #42:01 h #4:16 h 282 W/m 12,3 km/h (3 Bft) 97,43 %
© 2019 W. Hausmann